createdAt,value
2018-08-10T00:01:41.735Z,82.20
2018-08-10T00:04:10.356Z,82.50
2018-08-10T00:06:39.077Z,82.00
2018-08-10T00:09:09.768Z,82.40
2018-08-10T00:11:38.283Z,81.20
2018-08-10T00:14:06.791Z,81.00
2018-08-10T00:16:35.306Z,80.30
2018-08-10T00:19:03.904Z,80.60
2018-08-10T00:21:32.429Z,80.40
2018-08-10T00:24:00.934Z,80.30
2018-08-10T00:26:29.434Z,78.80
2018-08-10T00:28:58.026Z,78.10
2018-08-10T00:31:26.542Z,78.10
2018-08-10T00:33:55.100Z,77.80
2018-08-10T00:36:23.638Z,77.70
2018-08-10T00:38:52.187Z,77.40
2018-08-10T00:41:20.672Z,77.40
2018-08-10T00:43:49.188Z,77.90
2018-08-10T00:46:17.682Z,78.10
2018-08-10T00:48:46.215Z,78.40
2018-08-10T00:51:15.228Z,78.90
2018-08-10T00:53:43.781Z,78.80
2018-08-10T00:56:12.263Z,78.70
2018-08-10T00:58:40.804Z,78.30
2018-08-10T01:01:09.315Z,78.50
2018-08-10T01:03:37.855Z,78.70
2018-08-10T01:06:06.406Z,78.00
2018-08-10T01:08:36.004Z,78.00
2018-08-10T01:11:04.530Z,77.70
2018-08-10T01:13:33.091Z,77.90
2018-08-10T01:16:01.546Z,78.40
2018-08-10T01:18:30.129Z,78.20
2018-08-10T01:20:58.640Z,78.80
2018-08-10T01:23:27.148Z,79.30
2018-08-10T01:25:55.625Z,79.40
2018-08-10T01:28:24.169Z,79.40
2018-08-10T01:30:52.702Z,79.60
2018-08-10T01:33:21.209Z,78.90
2018-08-10T01:35:49.710Z,79.20
2018-08-10T01:38:18.267Z,79.10
2018-08-10T01:40:46.788Z,79.20
2018-08-10T01:43:15.290Z,79.00
2018-08-10T01:45:43.839Z,78.70
2018-08-10T01:48:12.282Z,78.80
2018-08-10T01:50:40.731Z,79.10
2018-08-10T01:53:09.219Z,78.80
2018-08-10T01:55:37.678Z,79.10
2018-08-10T01:58:06.109Z,79.90
2018-08-10T02:00:34.557Z,79.30
2018-08-10T02:03:02.996Z,79.40
2018-08-10T02:05:31.486Z,79.30
2018-08-10T02:07:59.930Z,79.40
2018-08-10T02:10:28.383Z,79.90
2018-08-10T02:12:57.895Z,79.90
2018-08-10T02:15:26.461Z,79.90
2018-08-10T02:17:54.933Z,80.00
2018-08-10T02:20:24.794Z,79.10
2018-08-10T02:22:53.274Z,79.50
2018-08-10T02:25:22.778Z,79.30
2018-08-10T02:27:51.735Z,78.00
2018-08-10T02:30:21.272Z,79.20
2018-08-10T02:32:50.460Z,77.80
2018-08-10T02:35:19.011Z,78.60
2018-08-10T02:37:47.473Z,78.10
2018-08-10T02:40:18.266Z,78.20
2018-08-10T02:42:47.634Z,78.40
2018-08-10T02:45:16.507Z,78.50
2018-08-10T02:47:45.565Z,78.50
2018-08-10T02:50:14.090Z,78.40
2018-08-10T02:52:42.560Z,78.90
2018-08-10T02:55:11.401Z,79.40
2018-08-10T02:57:39.912Z,79.70
2018-08-10T03:00:10.079Z,79.40
2018-08-10T03:02:38.532Z,79.70
2018-08-10T03:05:07.851Z,80.30
2018-08-10T03:07:36.443Z,80.20
2018-08-10T03:10:06.149Z,80.30
2018-08-10T03:12:34.646Z,80.10
2018-08-10T03:15:03.148Z,80.30
2018-08-10T03:17:31.627Z,80.40
2018-08-10T03:20:00.059Z,80.20
2018-08-10T03:22:28.533Z,80.30
2018-08-10T03:24:56.981Z,80.40
2018-08-10T03:27:25.500Z,80.30
2018-08-10T03:29:53.956Z,79.60
2018-08-10T03:32:22.419Z,80.30
2018-08-10T03:34:50.876Z,80.20
2018-08-10T03:37:19.405Z,80.20
2018-08-10T03:39:47.855Z,80.20
2018-08-10T03:42:16.325Z,80.60
2018-08-10T03:44:44.785Z,80.10
2018-08-10T03:47:13.343Z,81.20
2018-08-10T03:49:41.874Z,81.80
2018-08-10T03:52:10.295Z,80.60
2018-08-10T03:54:38.802Z,80.70
2018-08-10T03:57:07.353Z,80.30
2018-08-10T03:59:35.863Z,81.20
2018-08-10T04:02:04.443Z,81.90
2018-08-10T04:04:32.910Z,81.80
2018-08-10T04:07:01.385Z,82.10
2018-08-10T04:09:29.849Z,82.30
2018-08-10T04:11:58.292Z,82.70
2018-08-10T04:14:26.777Z,82.70
2018-08-10T04:16:55.255Z,82.70
2018-08-10T04:19:23.727Z,82.30
2018-08-10T04:21:52.246Z,82.70
2018-08-10T04:24:20.685Z,82.60
2018-08-10T04:26:49.159Z,82.90
2018-08-10T04:29:17.593Z,82.50
2018-08-10T04:31:46.111Z,82.50
2018-08-10T04:34:14.564Z,82.70
2018-08-10T04:36:43.055Z,83.90
2018-08-10T04:39:13.074Z,83.20
2018-08-10T04:41:41.701Z,83.60
2018-08-10T04:44:10.185Z,83.70
2018-08-10T04:46:38.696Z,84.30
2018-08-10T04:49:07.637Z,83.90
2018-08-10T04:51:36.150Z,83.40
2018-08-10T04:54:04.740Z,83.20
2018-08-10T04:56:33.233Z,83.10
2018-08-10T04:59:01.741Z,83.30
2018-08-10T05:01:30.259Z,83.70
2018-08-10T05:03:58.757Z,83.70
2018-08-10T05:06:27.261Z,83.70
2018-08-10T05:08:55.779Z,82.80
2018-08-10T05:11:24.263Z,81.80
2018-08-10T05:13:52.778Z,81.10
2018-08-10T05:16:21.349Z,80.20
2018-08-10T05:18:49.850Z,81.00
2018-08-10T05:21:18.361Z,81.00
2018-08-10T05:23:46.857Z,80.60
2018-08-10T05:26:15.373Z,80.50
2018-08-10T05:28:43.872Z,78.70
2018-08-10T05:31:12.364Z,77.00
2018-08-10T05:33:40.882Z,75.60
2018-08-10T05:36:09.527Z,73.90
2018-08-10T05:38:38.425Z,73.90
2018-08-10T05:41:06.960Z,73.50
2018-08-10T05:43:35.459Z,73.50
2018-08-10T05:46:03.972Z,73.50
2018-08-10T05:48:38.405Z,72.00
2018-08-10T05:51:08.260Z,73.50
2018-08-10T05:53:36.804Z,74.50
2018-08-10T05:56:05.307Z,75.70
2018-08-10T05:58:33.785Z,74.60
2018-08-10T06:01:02.268Z,73.90
2018-08-10T06:03:30.784Z,73.60
2018-08-10T06:05:59.295Z,73.70
2018-08-10T06:08:27.764Z,74.70
2018-08-10T06:10:56.253Z,74.60
2018-08-10T06:13:24.722Z,74.90
2018-08-10T06:15:53.260Z,75.30
2018-08-10T06:18:21.757Z,75.70
2018-08-10T06:20:50.258Z,75.00
2018-08-10T06:23:18.727Z,76.40
2018-08-10T06:25:47.241Z,77.40
2018-08-10T06:28:15.755Z,77.90
2018-08-10T06:30:44.234Z,77.10
2018-08-10T06:33:12.663Z,77.10
2018-08-10T06:35:41.116Z,75.80
2018-08-10T06:38:09.512Z,75.80
2018-08-10T06:40:37.981Z,75.00
2018-08-10T06:43:06.472Z,74.40
2018-08-10T06:45:34.910Z,73.90
2018-08-10T06:48:03.368Z,73.30
2018-08-10T06:50:31.758Z,73.10
2018-08-10T06:53:00.172Z,72.50
2018-08-10T06:55:28.789Z,71.60
2018-08-10T06:57:57.220Z,71.30
2018-08-10T07:00:25.701Z,71.70
2018-08-10T07:02:54.128Z,72.40
2018-08-10T07:05:22.545Z,71.70
2018-08-10T07:07:50.996Z,71.20
2018-08-10T07:10:19.404Z,71.00
2018-08-10T07:12:47.853Z,71.10
2018-08-10T07:15:16.256Z,72.40
2018-08-10T07:17:44.665Z,72.20
2018-08-10T07:20:13.089Z,70.70
2018-08-10T07:22:41.709Z,69.70
2018-08-10T07:25:10.133Z,69.00
2018-08-10T07:27:38.595Z,67.50
2018-08-10T07:30:07.032Z,67.00
2018-08-10T07:32:35.465Z,67.00
2018-08-10T07:35:03.967Z,65.50
2018-08-10T07:37:32.556Z,64.50
2018-08-10T07:40:01.032Z,64.10
2018-08-10T07:42:29.899Z,65.30
2018-08-10T07:44:58.340Z,65.50
2018-08-10T07:47:26.777Z,65.10
2018-08-10T07:49:55.212Z,64.30
2018-08-10T07:52:23.668Z,64.30
2018-08-10T07:54:52.100Z,63.70
2018-08-10T07:57:20.556Z,62.30
2018-08-10T07:59:48.992Z,61.10
2018-08-10T08:02:17.448Z,61.10
2018-08-10T08:04:45.885Z,61.10
2018-08-10T08:07:14.344Z,62.20
2018-08-10T08:09:42.771Z,62.70
2018-08-10T08:12:11.252Z,62.70
2018-08-10T08:14:39.672Z,61.40
2018-08-10T08:17:08.216Z,60.40
2018-08-10T08:19:36.805Z,60.20
2018-08-10T08:22:07.672Z,60.20
2018-08-10T08:24:36.271Z,58.90
2018-08-10T08:27:06.078Z,60.00
2018-08-10T08:29:35.055Z,59.20
2018-08-10T08:32:03.724Z,58.00
2018-08-10T08:34:32.207Z,57.60
2018-08-10T08:37:01.504Z,57.10
2018-08-10T08:40:39.099Z,56.90
2018-08-10T08:43:07.593Z,56.70
2018-08-10T08:45:45.460Z,57.00
2018-08-10T08:48:13.728Z,57.30
2018-08-10T08:50:43.437Z,56.60
2018-08-10T08:53:12.057Z,56.60
2018-08-10T08:55:52.563Z,55.30
2018-08-10T08:58:21.159Z,54.20
2018-08-10T09:00:49.715Z,53.60
2018-08-10T09:03:29.858Z,54.40
2018-08-10T09:05:58.948Z,53.40
2018-08-10T09:08:27.512Z,52.70
2018-08-10T09:10:57.316Z,52.90
2018-08-10T09:13:26.405Z,51.90
2018-08-10T09:15:54.988Z,52.50
2018-08-10T09:18:23.499Z,52.40
2018-08-10T09:20:52.015Z,52.20
2018-08-10T09:23:20.553Z,52.50
2018-08-10T09:25:49.084Z,52.00
2018-08-10T09:28:17.583Z,53.70
2018-08-10T09:30:46.185Z,53.80
2018-08-10T09:33:14.691Z,53.10
2018-08-10T09:35:43.288Z,52.20
2018-08-10T09:38:11.919Z,52.90
2018-08-10T09:40:40.527Z,53.70
2018-08-10T09:43:09.018Z,54.30
2018-08-10T09:45:37.572Z,54.60
2018-08-10T09:48:06.491Z,55.10
2018-08-10T09:50:35.055Z,54.90
2018-08-10T09:53:04.789Z,54.70
2018-08-10T09:56:10.100Z,55.00
2018-08-10T09:58:38.653Z,54.10
2018-08-10T10:01:11.426Z,54.70
2018-08-10T10:03:39.911Z,54.80
2018-08-10T10:06:08.459Z,54.80
2018-08-10T10:08:37.012Z,54.30
2018-08-10T10:11:05.680Z,53.60
2018-08-10T10:13:34.198Z,52.80
2018-08-10T10:16:02.748Z,53.10
2018-08-10T10:18:31.522Z,51.90
2018-08-10T10:21:00.141Z,52.50
2018-08-10T10:23:28.657Z,51.70
2018-08-10T10:25:57.170Z,51.70
2018-08-10T10:28:25.651Z,52.00
2018-08-10T10:30:54.212Z,52.00
2018-08-10T10:33:22.689Z,51.30
2018-08-10T10:35:51.215Z,50.90
2018-08-10T10:38:19.735Z,51.20
2018-08-10T10:40:48.232Z,51.50
2018-08-10T10:43:16.772Z,51.50
2018-08-10T10:45:45.339Z,51.90
2018-08-10T10:48:13.894Z,50.50
2018-08-10T10:50:42.496Z,48.80
2018-08-10T10:53:11.062Z,48.70
2018-08-10T10:55:39.924Z,48.50
2018-08-10T10:58:08.328Z,48.60
2018-08-10T11:00:36.851Z,47.20
2018-08-10T11:03:05.391Z,47.20
2018-08-10T11:05:33.979Z,47.30
2018-08-10T11:08:02.514Z,47.70
2018-08-10T11:10:31.034Z,48.20
2018-08-10T11:12:59.543Z,48.30
2018-08-10T11:15:28.147Z,47.30
2018-08-10T11:17:56.683Z,48.60
2018-08-10T11:20:25.210Z,48.60
2018-08-10T11:22:53.716Z,48.20
2018-08-10T11:25:22.524Z,47.90
2018-08-10T11:27:51.031Z,48.10
2018-08-10T11:30:19.626Z,48.70
2018-08-10T11:32:48.116Z,48.40
2018-08-10T11:35:16.627Z,48.70
2018-08-10T11:37:45.250Z,47.60
2018-08-10T11:40:15.591Z,46.80
2018-08-10T11:42:44.500Z,46.70
2018-08-10T11:45:15.523Z,47.60
2018-08-10T11:47:44.091Z,46.40
2018-08-10T11:50:12.833Z,47.20
2018-08-10T11:52:41.378Z,47.80
2018-08-10T11:55:12.127Z,48.00
2018-08-10T11:57:40.843Z,47.40
2018-08-10T12:00:11.236Z,46.60
2018-08-10T12:02:39.823Z,47.10
2018-08-10T12:05:09.735Z,46.90
2018-08-10T12:07:38.327Z,47.30
2018-08-10T12:10:07.395Z,47.30
2018-08-10T12:12:36.045Z,47.70
2018-08-10T12:15:05.504Z,47.30
2018-08-10T12:17:34.032Z,46.80
2018-08-10T12:20:02.536Z,47.40
2018-08-10T12:22:31.051Z,47.10
2018-08-10T12:24:59.559Z,46.00
2018-08-10T12:27:28.162Z,46.20
2018-08-10T12:29:56.698Z,46.70
2018-08-10T12:32:25.309Z,45.50
2018-08-10T12:34:53.781Z,45.90
2018-08-10T12:37:22.289Z,46.70
2018-08-10T12:39:50.799Z,46.20
2018-08-10T12:42:19.263Z,46.40
2018-08-10T12:44:47.794Z,46.20
2018-08-10T12:47:16.284Z,46.50
2018-08-10T12:49:44.794Z,45.70
2018-08-10T12:52:13.268Z,44.80
2018-08-10T12:54:41.743Z,45.00
2018-08-10T12:57:10.288Z,44.90
2018-08-10T12:59:38.743Z,44.80
2018-08-10T13:02:07.407Z,43.30
2018-08-10T13:04:35.878Z,44.70
2018-08-10T13:07:04.418Z,45.10
2018-08-10T13:09:32.891Z,45.40
2018-08-10T13:12:01.355Z,45.40
2018-08-10T13:14:29.826Z,45.60
2018-08-10T13:16:58.290Z,44.50
2018-08-10T13:19:26.759Z,44.40
2018-08-10T13:21:55.199Z,44.10
2018-08-10T13:24:23.680Z,44.50
2018-08-10T13:26:52.219Z,44.00
2018-08-10T13:29:20.800Z,43.80
2018-08-10T13:31:49.339Z,43.20
2018-08-10T13:34:17.900Z,43.60
2018-08-10T13:36:46.449Z,42.70
2018-08-10T13:39:14.943Z,42.50
2018-08-10T13:41:43.482Z,43.70
2018-08-10T13:44:12.288Z,43.00
2018-08-10T13:46:40.840Z,43.70
2018-08-10T13:49:09.476Z,43.70
2018-08-10T13:51:38.009Z,42.80
2018-08-10T13:54:06.616Z,42.10
2018-08-10T13:56:35.247Z,42.50
2018-08-10T13:59:03.883Z,41.90
2018-08-10T14:01:32.423Z,42.90
2018-08-10T14:04:00.946Z,41.90
2018-08-10T14:06:29.649Z,41.40
2018-08-10T14:08:58.227Z,42.00
2018-08-10T14:11:26.710Z,41.90
2018-08-10T14:13:55.271Z,41.90
2018-08-10T14:16:23.779Z,42.50
2018-08-10T14:18:52.307Z,41.70
2018-08-10T14:21:20.890Z,42.10
2018-08-10T14:23:49.404Z,42.60
2018-08-10T14:26:17.955Z,41.80
2018-08-10T14:28:46.483Z,41.60
2018-08-10T14:31:15.015Z,41.30
2018-08-10T14:33:43.531Z,41.70
2018-08-10T14:36:12.031Z,41.10
2018-08-10T14:38:40.515Z,40.70
2018-08-10T14:41:09.140Z,40.40
2018-08-10T14:43:37.639Z,41.10
2018-08-10T14:46:06.187Z,41.40
2018-08-10T14:48:34.695Z,42.20
2018-08-10T14:51:03.240Z,41.20
2018-08-10T14:53:32.055Z,40.50
2018-08-10T14:56:00.487Z,40.00
2018-08-10T14:58:29.077Z,40.30
2018-08-10T15:00:57.581Z,42.20
2018-08-10T15:03:26.084Z,42.40
2018-08-10T15:05:54.564Z,42.40
2018-08-10T15:08:23.019Z,42.50
2018-08-10T15:10:51.503Z,42.40
2018-08-10T15:13:20.011Z,42.80
2018-08-10T15:15:48.522Z,42.20
2018-08-10T15:18:17.114Z,41.90
2018-08-10T15:20:45.603Z,41.20
2018-08-10T15:23:14.088Z,40.80
2018-08-10T15:25:42.574Z,41.10
2018-08-10T15:28:11.028Z,41.20
2018-08-10T15:30:39.568Z,40.10
2018-08-10T15:33:08.118Z,39.40
2018-08-10T15:35:36.639Z,38.80
2018-08-10T15:38:05.690Z,39.50
2018-08-10T15:40:34.206Z,37.70
2018-08-10T15:43:02.683Z,38.20
2018-08-10T15:45:31.182Z,38.40
2018-08-10T15:47:59.679Z,37.50
2018-08-10T15:50:28.201Z,40.00
2018-08-10T15:52:56.682Z,39.00
2018-08-10T15:55:25.167Z,40.70
2018-08-10T15:57:53.647Z,41.20
2018-08-10T16:00:24.309Z,41.30
2018-08-10T16:02:52.801Z,41.70
2018-08-10T16:05:21.369Z,41.50
2018-08-10T16:07:49.911Z,41.60
2018-08-10T16:10:18.413Z,42.50
2018-08-10T16:12:46.890Z,41.90
2018-08-10T16:15:16.719Z,42.00
2018-08-10T16:17:45.206Z,41.90
2018-08-10T16:20:19.807Z,42.00
2018-08-10T16:22:48.432Z,40.10
2018-08-10T16:25:16.967Z,39.90
2018-08-10T16:27:45.783Z,40.00
2018-08-10T16:30:15.479Z,40.30
2018-08-10T16:32:44.805Z,39.90
2018-08-10T16:35:14.369Z,39.70
2018-08-10T16:37:44.131Z,39.40
2018-08-10T16:40:14.124Z,39.70
2018-08-10T16:42:43.040Z,40.20
2018-08-10T16:45:12.198Z,39.20
2018-08-10T16:47:40.831Z,39.80
2018-08-10T16:50:11.935Z,40.20
2018-08-10T16:52:41.260Z,40.20
2018-08-10T16:55:12.491Z,41.00
2018-08-10T16:57:41.807Z,42.10
2018-08-10T17:00:13.131Z,41.40
2018-08-10T17:02:41.910Z,40.80
2018-08-10T17:05:10.832Z,41.50
2018-08-10T17:07:40.057Z,41.80
2018-08-10T17:10:08.683Z,41.70
2018-08-10T17:12:38.727Z,41.40
2018-08-10T17:15:09.879Z,40.80
2018-08-10T17:17:38.335Z,40.80
2018-08-10T17:20:06.904Z,41.10
2018-08-10T17:22:35.483Z,40.90
2018-08-10T17:25:04.906Z,41.20
2018-08-10T17:27:33.396Z,41.30
2018-08-10T17:30:01.903Z,41.80
2018-08-10T17:32:30.346Z,42.10
2018-08-10T17:34:58.859Z,42.30
2018-08-10T17:37:27.324Z,42.60
2018-08-10T17:39:55.887Z,42.60
2018-08-10T17:42:24.383Z,42.60
2018-08-10T17:44:52.958Z,42.50
2018-08-10T17:47:21.435Z,42.70
2018-08-10T17:49:49.933Z,43.10
2018-08-10T17:52:18.407Z,43.40
2018-08-10T17:54:47.062Z,42.70
2018-08-10T17:57:15.560Z,42.50
2018-08-10T17:59:44.030Z,42.80
2018-08-10T18:02:12.489Z,42.90
2018-08-10T18:04:40.957Z,42.90
2018-08-10T18:07:09.423Z,42.50
2018-08-10T18:09:37.967Z,43.00
2018-08-10T18:12:06.527Z,43.00
2018-08-10T18:14:35.047Z,43.10
2018-08-10T18:17:03.527Z,43.20
2018-08-10T18:19:31.999Z,43.10
2018-08-10T18:22:00.505Z,43.50
2018-08-10T18:24:28.970Z,43.50
2018-08-10T18:26:57.442Z,43.70
2018-08-10T18:29:26.035Z,44.20
2018-08-10T18:31:54.547Z,43.60
2018-08-10T18:34:23.136Z,44.50
2018-08-10T18:36:51.646Z,44.50
2018-08-10T18:39:20.242Z,45.00
2018-08-10T18:41:48.786Z,45.10
2018-08-10T18:44:17.410Z,45.50
2018-08-10T18:46:45.976Z,45.90
2018-08-10T18:49:14.549Z,46.50
2018-08-10T18:51:43.122Z,47.10
2018-08-10T18:54:11.736Z,47.20
2018-08-10T18:56:40.368Z,47.30
2018-08-10T18:59:08.967Z,47.60
2018-08-10T19:01:37.551Z,47.50
2018-08-10T19:04:06.619Z,48.00
2018-08-10T19:06:35.230Z,48.70
2018-08-10T19:09:05.457Z,48.50
2018-08-10T19:11:34.022Z,48.50
2018-08-10T19:14:02.518Z,48.60
2018-08-10T19:16:31.002Z,48.60
2018-08-10T19:18:59.543Z,48.90
2018-08-10T19:21:28.068Z,48.90
2018-08-10T19:23:56.631Z,49.20
2018-08-10T19:26:25.223Z,49.20
2018-08-10T19:28:53.758Z,49.40
2018-08-10T19:31:22.307Z,49.50
2018-08-10T19:33:50.854Z,49.90
2018-08-10T19:36:19.376Z,50.50
2018-08-10T19:38:47.924Z,50.50
2018-08-10T19:41:16.503Z,51.20
2018-08-10T19:43:45.052Z,51.40
2018-08-10T19:46:13.736Z,51.80
2018-08-10T19:48:42.331Z,51.70
2018-08-10T19:51:10.915Z,51.60
2018-08-10T19:53:39.472Z,51.90
2018-08-10T19:56:08.039Z,52.20
2018-08-10T19:58:36.630Z,52.40
2018-08-10T20:01:05.176Z,52.20
2018-08-10T20:03:33.759Z,52.50
2018-08-10T20:06:02.340Z,52.90
2018-08-10T20:08:30.895Z,53.30
2018-08-10T20:10:59.447Z,53.10
2018-08-10T20:13:28.145Z,53.20
2018-08-10T20:15:56.839Z,53.80
2018-08-10T20:18:25.334Z,53.60
2018-08-10T20:20:53.843Z,53.70
2018-08-10T20:23:22.419Z,53.30
2018-08-10T20:25:50.978Z,53.20
2018-08-10T20:28:19.576Z,53.10
2018-08-10T20:30:48.174Z,52.90
2018-08-10T20:33:16.739Z,52.80
2018-08-10T20:35:45.287Z,54.10
2018-08-10T20:38:13.827Z,53.60
2018-08-10T20:40:42.339Z,54.10
2018-08-10T20:43:10.924Z,54.40
2018-08-10T20:45:39.491Z,54.40
2018-08-10T20:48:08.166Z,53.70
2018-08-10T20:50:36.843Z,53.70
2018-08-10T20:53:05.399Z,52.00
2018-08-10T20:55:34.043Z,51.90
2018-08-10T20:58:02.652Z,52.20
2018-08-10T21:00:31.359Z,52.70
2018-08-10T21:02:59.987Z,53.90
2018-08-10T21:05:28.593Z,53.00
2018-08-10T21:07:57.194Z,53.70
2018-08-10T21:10:25.691Z,54.00
2018-08-10T21:12:54.244Z,54.60
2018-08-10T21:15:22.761Z,54.60
2018-08-10T21:17:51.294Z,54.80
2018-08-10T21:20:19.832Z,55.10
2018-08-10T21:22:48.451Z,55.60
2018-08-10T21:25:17.027Z,55.30
2018-08-10T21:27:45.535Z,56.20
2018-08-10T21:30:15.347Z,56.70
2018-08-10T21:32:43.863Z,57.00
2018-08-10T21:35:12.424Z,57.00
2018-08-10T21:37:41.091Z,56.70
2018-08-10T21:40:10.307Z,57.70
2018-08-10T21:42:39.191Z,58.50
2018-08-10T21:45:07.703Z,58.40
2018-08-10T21:47:36.762Z,58.40
2018-08-10T21:50:07.176Z,58.50
2018-08-10T21:52:35.670Z,58.40
2018-08-10T21:55:04.235Z,59.40
2018-08-10T21:57:32.774Z,59.30
2018-08-10T22:00:01.268Z,59.70
2018-08-10T22:02:29.794Z,59.10
2018-08-10T22:04:58.271Z,59.20
2018-08-10T22:07:26.742Z,59.70
2018-08-10T22:09:55.219Z,59.90
2018-08-10T22:12:23.683Z,59.60
2018-08-10T22:14:57.611Z,60.40
2018-08-10T22:17:31.379Z,60.40
2018-08-10T22:20:00.979Z,61.00
2018-08-10T22:22:30.974Z,61.30
2018-08-10T22:24:59.627Z,61.50
2018-08-10T22:27:28.190Z,61.50
2018-08-10T22:29:56.747Z,61.90
2018-08-10T22:32:25.258Z,61.80
2018-08-10T22:34:53.752Z,62.00
2018-08-10T22:37:22.219Z,61.80
2018-08-10T22:39:50.799Z,62.20
2018-08-10T22:42:19.366Z,62.90
2018-08-10T22:44:47.851Z,63.50
2018-08-10T22:47:16.758Z,63.70
2018-08-10T22:49:45.364Z,63.90
2018-08-10T22:52:13.966Z,63.70
2018-08-10T22:54:42.477Z,64.00
2018-08-10T22:57:10.955Z,64.50
2018-08-10T22:59:39.458Z,63.90
2018-08-10T23:02:08.106Z,64.00
2018-08-10T23:04:36.599Z,64.80
2018-08-10T23:07:05.100Z,64.50
2018-08-10T23:09:33.694Z,64.80
2018-08-10T23:12:02.222Z,64.70
2018-08-10T23:14:30.719Z,64.40
2018-08-10T23:16:59.283Z,65.30
2018-08-10T23:19:27.778Z,65.60
2018-08-10T23:21:56.232Z,65.60
2018-08-10T23:24:24.788Z,65.50
2018-08-10T23:26:53.839Z,65.40
2018-08-10T23:29:22.303Z,65.50
2018-08-10T23:31:50.777Z,65.80
2018-08-10T23:34:19.283Z,66.10
2018-08-10T23:36:47.751Z,65.50
2018-08-10T23:39:16.229Z,65.70
2018-08-10T23:41:44.738Z,66.20
2018-08-10T23:44:13.199Z,66.30
2018-08-10T23:46:41.775Z,65.60
2018-08-10T23:49:10.222Z,66.20
2018-08-10T23:51:38.807Z,65.80
2018-08-10T23:54:07.276Z,65.40
2018-08-10T23:56:35.782Z,65.40
2018-08-10T23:59:04.298Z,65.60
